ENNMENVA

Guest
Details From ENNM - Namsos
To ENVA - Vaernes
Flight Number -
Tags generated
Created
Modified
Stats Distance 63 nm / 118 km
Max Altitude 6,500 ft / 1,981 m
Waypoints 3
Social Downloads 15
Likes 0
Share

Download

Looking for another format? Having issues loading an existing format? Contact us
Advertisement - Login to hide

Notes

Basic altitude profile: - Ascent Rate: 2500ft/min - Ascent Speed: 250kts - Cruise Altitude: 35000ft - Cruise Speed: 420kts - Descent Rate: 1500ft/min - Descent Speed: 250kts Options: - Use NATs: yes - Use PACOTS: yes - Use low airways: yes - Use high airways: yes

Route

ENNM NAMOX ENVA

ID Type Via Altitude (ft/m) Position (lat/lon) Dist (leg/tot) Name
O ENNM APT - 0 / 0 64.47228 / 11.57858 - / 0 nm Namsos
NAMOX FIX - 6,500 / 1,981 64.18611 / 11.32111 18 / 18 nm
O ENVA APT - 0 / 0 63.45760 / 10.91798 45 / 63 nm Vaernes

Altitude Profile

Advertisement - Login to hide

ENNM

Details ICAO ENNM (OSY)
Name Namsos
Region Norway
Timezone Unknown
Stats Elevation 6 ft / 2 m (AMSL)
Location 64.472200° 11.577900°
Runways 1
Magnetic Variation 4.611° E

METAR

ENNM 261950Z VRB01KT CAVOK 22/17 Q1013

Decode

TAF

Not found

Departure Runways

ID Width Length Bearing (true/mag) Surface Threshold Overrun Markings Lighting
07 98 ft / 30 m 3,071 ft / 936 m 74.61° / 70.00° ASPHALT 43 ft / 13 m 0 ft / 0 m APP CENTERLINE EDGE THRESHOLD MALSF
25 98 ft / 30 m 3,071 ft / 936 m 254.62° / 250.01° ASPHALT 108 ft / 33 m 0 ft / 0 m APP CENTERLINE EDGE THRESHOLD MALSF

ENVA

Details ICAO ENVA (TRD)
Name Trondheim Vaernes
Region Norway
Timezone Europe/Oslo (UTC+2.0)
Stats Elevation 56 ft / 17 m (AMSL)
Location 63.457500° 10.924200°
Runways 1
Magnetic Variation 4.189° E

METAR

ENVA 262020Z 15007KT CAVOK 22/13 Q1013 RMK WIND 670FT 16014KT

Decode

TAF

TAF ENVA 261700Z 2618/2718 10005KT CAVOK BECMG 2709/2712 16010KT

Decode

Destination Runways

ID Width Length Bearing (true/mag) Surface Threshold Overrun Markings Lighting
09 148 ft / 45 m 9,744 ft / 2,970 m 90.18° / 85.99° ASPHALT 830 ft / 253 m 0 ft / 0 m PREC-APP CENTERLINE EDGE THRESHOLD CALVERT REIL-OMNI
27 148 ft / 45 m 9,744 ft / 2,970 m 270.24° / 266.05° ASPHALT 745 ft / 227 m 0 ft / 0 m PREC-APP CENTERLINE EDGE THRESHOLD CALVERT REIL-OMNI

Approach Navaids

Runway Type Ident Frequency Range Bearing (true/mag) Slope Elevation
09 DME TO 110.30 MHz 18 nm / 33 km - - 31 ft / 9 m (AMSL)
09 LOC-ILS TO 110.30 MHz 18 nm / 33 km 90.26° / 86.07 ° - 31 ft / 9 m (AMSL)
09 GS TO 110.30 MHz 10 nm / 19 km 90.46° / 86.27 ° 3.00° 56 ft / 17 m (AMSL)
27 DME TD 109.90 MHz 18 nm / 33 km - - 78 ft / 24 m (AMSL)
27 LOC-ILS TD 109.90 MHz 18 nm / 33 km 270.20° / 266.01 ° - 56 ft / 17 m (AMSL)
27 GS TD 109.90 MHz 10 nm / 19 km 270.46° / 266.27 ° 3.40° 56 ft / 17 m (AMSL)
27 OM OM - - 270.23° / 266.04 ° - 56 ft / 17 m (AMSL)
27 MM MM - - 270.23° / 266.04 ° - 56 ft / 17 m (AMSL)

Popular Alternatives